Time;durP1;ratioP1;P1;durP2;ratioP2;P2;SDS_P1;SDS_P2;PMS_P1;PMS_P2;Temp;Humidity;BMP_temperature;BMP_pressure;BME280_temperature;BME280_humidity;BME280_pressure;Samples;Min_cycle;Max_cycle;Signal;HPM_P1;HPM_P2
2022/07/23 00:00:52;;;;;;;2.55;1.42;;;;;;;;;;21237079;27;20234;-71
2022/07/23 00:10:54;;;;;;;3.70;1.50;;;;;;;;;;21238378;27;20226;-72
2022/07/23 00:20:55;;;;;;;1.77;1.30;;;;;;;;;;21238086;27;20213;-71
2022/07/23 00:30:57;;;;;;;2.08;1.38;;;;;;;;;;21252836;27;20218;-71
2022/07/23 00:40:59;;;;;;;3.80;1.52;;;;;;;;;;21234825;27;20209;-71
2022/07/23 00:51:01;;;;;;;4.20;1.77;;;;;;;;;;21212293;27;20266;-72
2022/07/23 01:01:03;;;;;;;2.70;1.73;;;;;;;;;;21250408;27;20212;-71
2022/07/23 01:11:05;;;;;;;3.28;1.65;;;;;;;;;;21249920;27;20424;-71
2022/07/23 01:21:08;;;;;;;2.45;1.58;;;;;;;;;;21232147;27;20234;-71
2022/07/23 01:31:10;;;;;;;2.10;1.42;;;;;;;;;;21248535;27;20235;-71
2022/07/23 01:41:18;;;;;;;1.83;1.20;;;;;;;;;;21247683;27;20210;-71
2022/07/23 01:51:21;;;;;;;2.15;1.65;;;;;;;;;;21211685;27;20210;-71
2022/07/23 02:01:32;;;;;;;2.45;1.45;;;;;;;;;;21227340;27;20564;-71
2022/07/23 02:11:34;;;;;;;3.17;1.70;;;;;;;;;;21210481;27;20210;-71
2022/07/23 02:21:36;;;;;;;2.20;1.48;;;;;;;;;;21245191;27;20266;-71
2022/07/23 02:31:38;;;;;;;2.10;1.40;;;;;;;;;;21210681;27;20259;-71
2022/07/23 02:41:41;;;;;;;3.13;2.00;;;;;;;;;;21225058;27;20210;-71
2022/07/23 02:51:43;;;;;;;2.10;1.60;;;;;;;;;;21223844;27;20317;-71
2022/07/23 03:01:46;;;;;;;2.35;1.52;;;;;;;;;;21222732;27;20205;-72
2022/07/23 03:11:48;;;;;;;3.55;1.70;;;;;;;;;;21223053;27;20792;-71
2022/07/23 03:21:50;;;;;;;2.42;1.63;;;;;;;;;;21204800;27;20559;-72
2022/07/23 03:31:51;;;;;;;2.03;1.52;;;;;;;;;;21221246;27;20682;-72
2022/07/23 03:41:54;;;;;;;3.25;1.70;;;;;;;;;;21220566;28;20258;-73
2022/07/23 03:51:55;;;;;;;3.80;1.98;;;;;;;;;;21216094;27;20221;-72
2022/07/23 04:01:57;;;;;;;4.05;1.80;;;;;;;;;;21228323;27;20681;-72
2022/07/23 04:12:01;;;;;;;3.22;1.92;;;;;;;;;;21220272;27;20218;-72
2022/07/23 04:22:02;;;;;;;2.65;1.92;;;;;;;;;;21255123;27;20205;-72
2022/07/23 04:32:06;;;;;;;3.88;2.00;;;;;;;;;;21236141;27;20270;-71
2022/07/23 04:42:08;;;;;;;2.65;1.92;;;;;;;;;;21235286;27;20541;-71
2022/07/23 04:52:10;;;;;;;4.10;2.42;;;;;;;;;;21234551;27;20261;-74
2022/07/23 05:02:13;;;;;;;3.00;2.15;;;;;;;;;;21232828;27;20675;-71
2022/07/23 05:12:15;;;;;;;2.65;2.10;;;;;;;;;;21232670;27;20559;-71
2022/07/23 05:22:18;;;;;;;2.50;2.03;;;;;;;;;;21209461;27;20725;-73
2022/07/23 05:32:20;;;;;;;6.32;4.18;;;;;;;;;;21211372;27;20231;-73
2022/07/23 05:42:30;;;;;;;4.38;2.50;;;;;;;;;;21216444;27;20222;-72
2022/07/23 05:52:32;;;;;;;2.65;2.10;;;;;;;;;;21215697;27;20226;-74
2022/07/23 06:02:54;;;;;;;2.92;2.28;;;;;;;;;;21221731;27;20214;-74
2022/07/23 06:12:56;;;;;;;3.03;2.10;;;;;;;;;;21200394;27;20656;-73
2022/07/23 06:22:59;;;;;;;3.33;2.20;;;;;;;;;;21203225;27;20221;-73
2022/07/23 06:33:01;;;;;;;2.67;2.10;;;;;;;;;;21159432;22;20247;-68
2022/07/23 06:43:04;;;;;;;3.05;2.33;;;;;;;;;;21130842;28;20655;-71
2022/07/23 06:53:07;;;;;;;3.70;2.55;;;24.40;99.90;;;;;;21073352;28;20588;-71
2022/07/23 07:03:09;;;;;;;3.20;2.20;;;;;;;;;;21153393;28;20211;-71
2022/07/23 07:13:10;;;;;;;2.63;2.20;;;;;;;;;;21157140;28;20215;-71
2022/07/23 07:23:13;;;;;;;2.88;2.05;;;;;;;;;;21121714;28;20268;-71
2022/07/23 07:33:15;;;;;;;2.50;2.10;;;;;;;;;;21153508;28;20296;-71
2022/07/23 07:43:16;;;;;;;3.70;2.08;;;;;;;;;;21110833;28;20250;-71
2022/07/23 07:53:18;;;;;;;2.95;2.35;;;;;;;;;;21139356;28;20432;-71
2022/07/23 08:03:20;;;;;;;3.20;2.60;;;;;;;;;;21151385;28;20209;-70
2022/07/23 08:13:22;;;;;;;4.72;2.00;;;;;;;;;;21144894;28;20221;-68
2022/07/23 08:23:23;;;;;;;3.15;2.10;;;;;;;;;;21128518;28;20244;-69
2022/07/23 08:33:25;;;;;;;2.85;2.20;;;25.80;99.90;;;;;;21121956;28;20248;-69
2022/07/23 08:43:29;;;;;;;3.15;2.53;;;;;;;;;;21141175;28;20232;-69
2022/07/23 08:53:32;;;;;;;3.80;2.60;;;;;;;;;;21156343;28;20765;-69
2022/07/23 09:03:35;;;;;;;2.92;2.28;;;26.00;99.90;;;;;;21116726;27;20214;-69
2022/07/23 09:13:52;;;;;;;4.45;3.28;;;;;;;;;;21146770;28;20224;-68
2022/07/23 09:24:03;;;;;;;4.32;2.40;;;;;;;;;;21138869;28;20225;-68
2022/07/23 09:34:11;;;;;;;4.65;2.42;;;26.50;99.90;;;;;;21139366;28;20218;-69
2022/07/23 09:44:16;;;;;;;3.83;2.47;;;26.60;99.90;;;;;;21126711;28;20215;-68
2022/07/23 09:54:30;;;;;;;3.63;2.42;;;;;;;;;;21159610;28;20264;-69
2022/07/23 10:04:32;;;;;;;3.47;2.55;;;27.40;99.90;;;;;;21155902;28;20205;-73
2022/07/23 10:15:00;;;;;;;4.95;3.40;;;;;;;;;;21130252;28;20567;-72
2022/07/23 10:25:05;;;;;;;3.72;2.65;;;;;;;;;;21131615;28;20256;-71
2022/07/23 10:35:13;;;;;;;3.13;2.53;;;;;;;;;;21101829;27;20273;-68
2022/07/23 10:45:34;;;;;;;3.17;2.30;;;;;;;;;;21155063;28;20261;-72
2022/07/23 10:55:36;;;;;;;3.88;3.08;;;;;;;;;;21156600;28;20203;-71
2022/07/23 11:05:43;;;;;;;3.10;2.38;;;;;;;;;;21154320;28;20768;-71
2022/07/23 11:16:05;;;;;;;4.32;2.67;;;;;;;;;;21156784;28;20208;-70
2022/07/23 11:26:08;;;;;;;2.58;2.05;;;;;;;;;;21154907;28;20533;-71
2022/07/23 11:36:10;;;;;;;3.50;2.45;;;;;;;;;;21153719;28;20771;-70
2022/07/23 11:46:11;;;;;;;2.63;2.25;;;;;;;;;;21153698;28;20280;-71
2022/07/23 11:56:14;;;;;;;3.47;2.35;;;;;;;;;;21155642;28;20231;-69
2022/07/23 12:06:16;;;;;;;3.15;2.25;;;;;;;;;;21142760;28;20225;-71
2022/07/23 12:16:18;;;;;;;4.40;2.28;;;;;;;;;;21151091;28;20222;-71
2022/07/23 12:26:20;;;;;;;2.88;2.30;;;;;;;;;;21158268;28;20218;-71
2022/07/23 12:36:39;;;;;;;2.33;1.98;;;28.60;99.90;;;;;;21140252;22;20226;-74
2022/07/23 12:46:41;;;;;;;2.17;1.52;;;;;;;;;;21133711;28;20700;-74
2022/07/23 12:56:45;;;;;;;2.30;1.75;;;;;;;;;;21154998;28;20212;-74
2022/07/23 13:06:47;;;;;;;3.75;2.30;;;;;;;;;;21118127;28;20230;-74
2022/07/23 13:16:50;;;;;;;5.72;2.30;;;28.30;99.90;;;;;;21169013;28;20199;-73
2022/07/23 13:26:52;;;;;;;3.15;2.13;;;;;;;;;;21098086;28;20307;-74
2022/07/23 13:36:55;;;;;;;2.65;1.80;;;;;;;;;;21107547;27;20226;-74
2022/07/23 13:47:00;;;;;;;2.70;1.95;;;;;;;;;;21135175;27;20640;-73
2022/07/23 13:57:03;;;;;;;3.20;2.10;;;;;;;;;;21230459;27;20805;-74
2022/07/23 14:07:05;;;;;;;2.40;1.70;;;;;;;;;;21199672;27;20231;-73
2022/07/23 14:17:07;;;;;;;2.83;2.10;;;;;;;;;;21225459;27;20203;-74
2022/07/23 14:27:09;;;;;;;2.72;1.98;;;30.00;99.90;;;;;;21133086;27;20228;-73
2022/07/23 14:37:30;;;;;;;3.58;1.77;;;;;;;;;;21103868;28;20606;-76
2022/07/23 14:47:34;;;;;;;2.88;1.85;;;;;;;;;;21109385;28;20212;-75
2022/07/23 14:57:36;;;;;;;3.33;1.85;;;;;;;;;;21148041;28;20203;-74
2022/07/23 15:07:38;;;;;;;2.50;1.80;;;;;;;;;;21160075;27;20215;-74
2022/07/23 15:17:40;;;;;;;2.75;2.10;;;;;;;;;;21201043;27;20207;-74
2022/07/23 15:27:41;;;;;;;3.20;1.75;;;;;;;;;;21163345;27;20216;-73
2022/07/23 15:37:44;;;;;;;3.05;1.90;;;;;;;;;;21191208;27;20646;-73
2022/07/23 15:47:48;;;;;;;2.20;1.63;;;;;;;;;;21199718;27;20685;-75
2022/07/23 15:57:51;;;;;;;2.10;1.75;;;;;;;;;;21173057;27;20240;-74
2022/07/23 16:07:53;;;;;;;2.17;1.88;;;;;;;;;;21199094;27;20219;-75
2022/07/23 16:17:55;;;;;;;4.53;1.90;;;30.80;94.10;;;;;;21250120;27;20585;-74
2022/07/23 16:27:58;;;;;;;2.55;1.73;;;;;;;;;;21212063;27;20232;-74
2022/07/23 16:38:01;;;;;;;2.65;1.60;;;;;;;;;;21172172;27;20228;-74
2022/07/23 16:48:03;;;;;;;2.38;1.80;;;;;;;;;;21240077;27;20659;-74
2022/07/23 16:58:05;;;;;;;2.28;1.50;;;;;;;;;;21206355;27;20284;-75
2022/07/23 17:08:07;;;;;;;2.22;1.50;;;;;;;;;;21186753;27;20782;-74
2022/07/23 17:18:12;;;;;;;2.22;1.52;;;;;;;;;;21170848;27;20451;-76
2022/07/23 17:28:14;;;;;;;2.10;1.60;;;;;;;;;;21033557;28;20280;-76
2022/07/23 17:38:17;;;;;;;2.40;1.52;;;;;;;;;;21071720;28;20231;-76
2022/07/23 17:48:19;;;;;;;2.50;1.50;;;;;;;;;;21068251;27;20215;-75
2022/07/23 17:58:21;;;;;;;4.28;1.73;;;;;;;;;;21226207;27;20211;-77
2022/07/23 18:08:22;;;;;;;2.70;1.55;;;;;;;;;;21222557;27;20211;-74
2022/07/23 18:18:24;;;;;;;4.15;1.63;;;;;;;;;;21223942;27;20234;-74
2022/07/23 18:28:26;;;;;;;3.05;1.60;;;;;;;;;;21149229;28;20220;-76
2022/07/23 18:38:28;;;;;;;3.28;1.70;;;;;;;;;;21155626;28;20219;-74
2022/07/23 18:48:30;;;;;;;2.60;1.80;;;;;;;;;;21198144;22;20236;-73
2022/07/23 18:58:31;;;;;;;2.78;1.80;;;;;;;;;;21065104;28;20765;-76
2022/07/23 19:08:34;;;;;;;2.80;1.63;;;;;;;;;;21146639;28;20730;-74
2022/07/23 19:18:36;;;;;;;2.22;1.60;;;;;;;;;;21142503;28;20694;-75
2022/07/23 19:28:37;;;;;;;4.28;1.98;;;;;;;;;;21152521;28;20218;-75
2022/07/23 19:38:39;;;;;;;2.83;1.60;;;;;;;;;;21154621;28;20237;-74
2022/07/23 19:48:41;;;;;;;3.10;1.77;;;;;;;;;;21148998;28;20241;-72
2022/07/23 19:58:44;;;;;;;3.00;1.65;;;;;;;;;;21144482;28;20215;-73
2022/07/23 20:08:46;;;;;;;4.13;2.00;;;;;;;;;;21093250;28;20231;-74
2022/07/23 20:18:48;;;;;;;3.63;2.10;;;;;;;;;;21139339;28;20211;-74
2022/07/23 20:28:49;;;;;;;2.95;1.73;;;;;;;;;;21120141;28;20203;-73
2022/07/23 20:38:51;;;;;;;3.45;1.35;;;;;;;;;;21105917;28;20216;-73
2022/07/23 20:48:53;;;;;;;2.83;1.63;;;;;;;;;;21122608;28;20228;-74
2022/07/23 20:58:55;;;;;;;3.53;1.10;;;;;;;;;;21124390;28;20296;-73
2022/07/23 21:08:57;;;;;;;1.98;1.35;;;;;;;;;;21146955;28;20215;-74
2022/07/23 21:18:59;;;;;;;2.53;1.35;;;;;;;;;;21106024;28;20231;-72
2022/07/23 21:29:04;;;;;;;2.38;1.40;;;;;;;;;;21112972;28;20640;-74
2022/07/23 21:39:06;;;;;;;2.45;1.23;;;;;;;;;;21119728;28;20343;-72
2022/07/23 21:49:07;;;;;;;4.07;1.13;;;;;;;;;;21121686;28;20245;-74
2022/07/23 21:59:09;;;;;;;2.75;1.20;;;;;;;;;;21132176;28;20215;-74
2022/07/23 22:09:11;;;;;;;1.98;1.15;;;;;;;;;;21162795;28;20223;-73
2022/07/23 22:19:13;;;;;;;2.15;1.27;;;;;;;;;;21160699;28;20275;-73
2022/07/23 22:29:15;;;;;;;1.73;1.13;;;;;;;;;;21126984;28;20238;-74
2022/07/23 22:39:17;;;;;;;1.75;1.10;;;;;;;;;;21158876;28;20198;-74
2022/07/23 22:49:18;;;;;;;1.50;0.95;;;;;;;;;;21156911;28;20279;-74
2022/07/23 22:59:20;;;;;;;2.35;1.08;;;;;;;;;;21139589;28;20209;-73
2022/07/23 23:09:22;;;;;;;1.45;1.00;;;;;;;;;;21157783;28;20229;-74
2022/07/23 23:19:23;;;;;;;1.38;1.00;;;;;;;;;;21157930;28;20206;-74
2022/07/23 23:29:25;;;;;;;2.10;0.90;;;;;;;;;;21156253;28;20773;-74
2022/07/23 23:39:27;;;;;;;1.50;1.02;;;;;;;;;;21154309;28;20229;-74
2022/07/23 23:49:29;;;;;;;1.20;0.90;;;;;;;;;;21153038;28;20219;-74
2022/07/23 23:59:31;;;;;;;2.28;1.05;;;;;;;;;;21155019;28;20589;-74
